Time;durP1;ratioP1;P1;durP2;ratioP2;P2;SDS_P1;SDS_P2;PMS_P1;PMS_P2;Temp;Humidity;BMP_temperature;BMP_pressure;BME280_temperature;BME280_humidity;BME280_pressure;Samples;Min_cycle;Max_cycle;Signal;HPM_P1;HPM_P2
2022/09/13 00:01:32;;;;;;;25.13;19.33;;;17.80;99.90;;;;;;5073814;28;20126;-65
2022/09/13 00:03:57;;;;;;;22.58;18.77;;;17.90;99.90;;;;;;5072456;28;20048;-64
2022/09/13 00:06:23;;;;;;;23.20;18.80;;;17.80;99.90;;;;;;5074090;28;20044;-64
2022/09/13 00:08:50;;;;;;;21.30;17.13;;;17.90;99.90;;;;;;5073593;28;20048;-64
2022/09/13 00:11:22;;;;;;;22.95;17.30;;;17.90;99.90;;;;;;5072272;28;20440;-64
2022/09/13 00:13:48;;;;;;;20.80;17.27;;;17.80;99.90;;;;;;5071645;28;20071;-64
2022/09/13 00:16:18;;;;;;;22.75;17.63;;;17.80;99.90;;;;;;5071619;28;20064;-65
2022/09/13 00:18:44;;;;;;;24.67;19.98;;;17.80;99.90;;;;;;5071787;28;20032;-64
2022/09/13 00:21:15;;;;;;;24.80;18.65;;;17.80;99.90;;;;;;5072935;28;20048;-64
2022/09/13 00:23:47;;;;;;;23.35;17.05;;;17.70;99.90;;;;;;5073514;28;20036;-64
2022/09/13 00:26:19;;;;;;;21.65;16.95;;;17.70;99.90;;;;;;5073263;28;20032;-64
2022/09/13 00:28:49;;;;;;;26.20;18.85;;;17.60;99.90;;;;;;5073457;28;20040;-65
2022/09/13 00:31:14;;;;;;;23.67;17.77;;;17.80;99.90;;;;;;5073485;28;20094;-64
2022/09/13 00:33:40;;;;;;;28.05;19.13;;;17.80;99.90;;;;;;5073424;28;20037;-64
2022/09/13 00:36:08;;;;;;;26.35;19.75;;;17.60;99.90;;;;;;5073416;28;20078;-64
2022/09/13 00:38:35;;;;;;;24.40;19.20;;;17.60;99.90;;;;;;5073298;28;20076;-65
2022/09/13 00:41:03;;;;;;;24.95;18.90;;;17.80;99.90;;;;;;5071697;28;20047;-64
2022/09/13 00:43:44;;;;;;;25.92;18.65;;;17.80;99.90;;;;;;5071806;28;20072;-64
2022/09/13 00:46:16;;;;;;;22.10;18.08;;;17.60;99.90;;;;;;5072609;28;20123;-64
2022/09/13 00:48:45;;;;;;;23.63;17.45;;;17.50;99.90;;;;;;5076594;28;20054;-64
2022/09/13 00:51:12;;;;;;;22.23;17.63;;;17.50;99.90;;;;;;5076917;28;20045;-64
2022/09/13 00:53:42;;;;;;;27.33;19.55;;;17.70;99.90;;;;;;5076695;28;20051;-65
2022/09/13 00:56:16;;;;;;;25.80;18.92;;;17.60;99.90;;;;;;5076718;28;20041;-64
2022/09/13 00:58:48;;;;;;;27.85;21.25;;;17.70;99.90;;;;;;5076920;28;20062;-64
2022/09/13 01:01:18;;;;;;;33.97;23.00;;;17.60;99.90;;;;;;5076686;28;20119;-64
2022/09/13 01:03:45;;;;;;;35.15;23.15;;;17.70;99.90;;;;;;5076829;28;20040;-65
2022/09/13 01:06:16;;;;;;;30.63;22.02;;;17.80;99.90;;;;;;5076707;28;20041;-64
2022/09/13 01:08:45;;;;;;;29.00;22.75;;;17.80;99.90;;;;;;5076732;28;20123;-65
2022/09/13 01:11:23;;;;;;;31.30;22.08;;;17.90;99.90;;;;;;5073831;28;20036;-65
2022/09/13 01:13:50;;;;;;;34.75;24.83;;;17.70;99.90;;;;;;5074912;28;20136;-65
2022/09/13 01:16:16;;;;;;;29.70;20.70;;;17.80;99.90;;;;;;5075812;28;20044;-64
2022/09/13 01:18:42;;;;;;;26.98;20.42;;;17.70;99.90;;;;;;5076525;28;20078;-65
2022/09/13 01:21:29;;;;;;;25.27;18.77;;;17.60;99.90;;;;;;5076303;28;20067;-64
2022/09/13 01:24:51;;;;;;;27.15;19.30;;;17.60;99.90;;;;;;5076498;28;20028;-65
2022/09/13 01:27:32;;;;;;;;;;;17.60;99.90;;;;;;5034442;28;20034;-64
2022/09/13 01:30:10;;;;;;;22.75;16.02;;;17.70;99.90;;;;;;5034215;28;19921;-65
2022/09/13 01:33:02;;;;;;;22.27;15.77;;;17.60;99.90;;;;;;5017697;28;20061;-65
2022/09/13 01:35:34;;;;;;;23.27;16.40;;;17.60;99.90;;;;;;5034065;28;20044;-65
2022/09/13 01:38:45;;;;;;;20.52;14.30;;;17.60;99.90;;;;;;5033866;28;20045;-64
2022/09/13 01:41:47;;;;;;;19.13;14.45;;;17.60;99.90;;;;;;5033645;28;20038;-64
2022/09/13 01:44:19;;;;;;;18.67;14.10;;;17.60;99.90;;;;;;5016606;28;20049;-63
2022/09/13 01:46:57;;;;;;;16.75;13.75;;;17.70;99.90;;;;;;5033779;28;20049;-64
2022/09/13 01:49:44;;;;;;;19.98;13.32;;;17.60;99.90;;;;;;5033758;28;20115;-65
2022/09/13 01:52:15;;;;;;;14.73;12.70;;;17.80;99.90;;;;;;5033724;28;20077;-64
2022/09/13 01:55:08;;;;;;;20.70;13.55;;;17.70;99.90;;;;;;5033703;28;20061;-65
2022/09/13 01:57:41;;;;;;;21.38;13.65;;;17.60;99.90;;;;;;5046036;28;20491;-64
2022/09/13 02:00:16;;;;;;;15.73;12.30;;;17.70;99.90;;;;;;5075719;28;20036;-64
2022/09/13 02:02:51;;;;;;;15.20;12.65;;;17.70;99.90;;;;;;5075735;28;20044;-65
2022/09/13 02:05:19;;;;;;;15.45;11.73;;;17.80;99.90;;;;;;5074743;28;20079;-65
2022/09/13 02:07:57;;;;;;;16.67;12.50;;;17.70;99.90;;;;;;5074546;28;20045;-65
2022/09/13 02:10:36;;;;;;;16.80;12.55;;;17.60;99.90;;;;;;5075562;28;20173;-64
2022/09/13 02:13:06;;;;;;;16.50;12.15;;;17.70;99.90;;;;;;5075587;28;20043;-65
2022/09/13 02:15:46;;;;;;;14.02;11.60;;;17.60;99.90;;;;;;5075560;28;20036;-65
2022/09/13 02:18:17;;;;;;;15.90;11.40;;;17.60;99.90;;;;;;5074485;28;20145;-64
2022/09/13 02:20:45;;;;;;;14.15;11.23;;;17.60;99.90;;;;;;5075377;28;20055;-65
2022/09/13 02:23:13;;;;;;;;;;;17.60;99.90;;;;;;5075728;28;20040;-65
2022/09/13 02:25:40;;;;;;;13.60;11.40;;;17.70;99.90;;;;;;5075173;28;19962;-65
2022/09/13 02:28:10;;;;;;;15.07;11.85;;;17.50;99.90;;;;;;5074017;28;20379;-66
2022/09/13 02:30:41;;;;;;;15.75;11.63;;;17.60;99.90;;;;;;5075223;28;20072;-65
2022/09/13 02:33:12;;;;;;;14.15;11.68;;;17.70;99.90;;;;;;5075593;28;20048;-64
2022/09/13 02:35:47;;;;;;;17.08;12.18;;;17.70;99.90;;;;;;5075048;28;20036;-65
2022/09/13 02:38:23;;;;;;;16.58;11.82;;;17.70;99.90;;;;;;5075065;28;20091;-65
2022/09/13 02:40:56;;;;;;;15.63;12.30;;;17.70;99.90;;;;;;5075062;28;20090;-65
2022/09/13 02:43:33;;;;;;;19.17;12.60;;;17.70;99.90;;;;;;5074924;28;20032;-65
2022/09/13 02:46:23;;;;;;;19.52;13.23;;;17.80;99.90;;;;;;5074813;28;20040;-65
2022/09/13 02:48:57;;;;;;;;;;;17.80;99.90;;;;;;5074917;28;20048;-64
2022/09/13 02:51:32;;;;;;;13.50;11.27;;;17.70;99.90;;;;;;5074787;28;19916;-64
2022/09/13 02:54:38;;;;;;;16.30;11.82;;;17.80;99.90;;;;;;5074465;28;20115;-64
2022/09/13 02:57:31;;;;;;;13.73;11.60;;;17.90;99.90;;;;;;5074721;28;20433;-64
2022/09/13 02:59:57;;;;;;;15.55;10.30;;;17.90;99.90;;;;;;5074618;28;20044;-64
2022/09/13 03:02:30;;;;;;;11.82;9.82;;;17.90;99.90;;;;;;5074565;28;20119;-64
2022/09/13 03:04:57;;;;;;;16.55;13.05;;;17.80;99.90;;;;;;5074513;28;20388;-65
2022/09/13 03:07:25;;;;;;;15.35;13.18;;;17.90;99.90;;;;;;5074414;28;20041;-65
2022/09/13 03:09:57;;;;;;;16.67;11.90;;;17.80;99.90;;;;;;5073662;28;20048;-64
2022/09/13 03:12:44;;;;;;;8.05;5.47;;;17.80;99.90;;;;;;5074385;28;20615;-65
2022/09/13 03:15:29;;;;;;;7.18;5.72;;;17.60;99.90;;;;;;5074310;28;20095;-65
2022/09/13 03:18:16;;;;;;;4.38;3.72;;;17.80;99.90;;;;;;5074311;28;20047;-65
2022/09/13 03:20:44;;;;;;;4.80;3.90;;;17.60;99.90;;;;;;5074197;28;20089;-65
2022/09/13 03:23:39;;;;;;;4.22;2.95;;;17.60;99.90;;;;;;5074177;28;20545;-65
2022/09/13 03:26:10;;;;;;;4.03;1.90;;;17.50;99.90;;;;;;5074206;28;20051;-65
2022/09/13 03:28:56;;;;;;;2.10;1.13;;;17.60;99.90;;;;;;5073919;28;20048;-65
2022/09/13 03:31:54;;;;;;;1.98;1.42;;;17.60;99.90;;;;;;5032013;28;20049;-64
2022/09/13 03:34:42;;;;;;;2.58;1.40;;;17.60;99.90;;;;;;5028191;28;20045;-64
2022/09/13 03:37:26;;;;;;;3.45;1.10;;;17.60;99.90;;;;;;5031947;28;20077;-65
2022/09/13 03:40:13;;;;;;;2.03;1.30;;;17.40;99.90;;;;;;5031967;28;20044;-64
2022/09/13 03:42:56;;;;;;;3.30;1.73;;;17.50;99.90;;;;;;5031754;28;20081;-64
2022/09/13 03:45:26;;;;;;;3.00;1.48;;;17.50;99.90;;;;;;5031835;28;20424;-64
2022/09/13 03:47:53;;;;;;;4.82;1.75;;;17.60;99.90;;;;;;5031404;28;20083;-65
2022/09/13 03:50:22;;;;;;;4.50;2.20;;;17.60;99.90;;;;;;5031517;28;20427;-65
2022/09/13 03:52:52;;;;;;;5.85;2.53;;;17.40;99.90;;;;;;5031285;28;20045;-65
2022/09/13 03:55:20;;;;;;;5.32;1.80;;;17.60;99.90;;;;;;5031594;28;20072;-65
2022/09/13 03:57:46;;;;;;;4.00;1.90;;;17.60;99.90;;;;;;5031689;28;20502;-65
2022/09/13 04:00:13;;;;;;;4.72;1.88;;;17.60;99.90;;;;;;5031647;28;20042;-64
2022/09/13 04:02:39;;;;;;;3.20;1.50;;;17.50;99.90;;;;;;5031599;28;20049;-64
2022/09/13 04:05:06;;;;;;;4.63;1.30;;;17.50;99.90;;;;;;5031386;28;20034;-64
2022/09/13 04:07:32;;;;;;;3.72;1.40;;;17.40;99.90;;;;;;5036452;28;20049;-64
2022/09/13 04:09:58;;;;;;;3.25;1.23;;;17.40;99.90;;;;;;5073374;28;20044;-64
2022/09/13 04:12:24;;;;;;;5.43;1.70;;;17.40;99.90;;;;;;5073592;28;20356;-64
2022/09/13 04:14:50;;;;;;;3.75;1.50;;;17.60;99.90;;;;;;5073788;28;20062;-64
2022/09/13 04:17:16;;;;;;;4.47;1.73;;;17.60;99.90;;;;;;5073627;28;20072;-64
2022/09/13 04:19:44;;;;;;;4.20;1.33;;;17.50;99.90;;;;;;5073395;28;20071;-64
2022/09/13 04:22:10;;;;;;;2.78;1.50;;;17.40;99.90;;;;;;5076662;28;20047;-64
2022/09/13 04:24:37;;;;;;;2.78;1.38;;;17.30;99.90;;;;;;5077382;28;20041;-64
2022/09/13 04:27:03;;;;;;;5.35;1.45;;;17.30;99.90;;;;;;5077437;28;20475;-64
2022/09/13 04:29:30;;;;;;;4.00;1.17;;;17.50;99.90;;;;;;5077313;28;20498;-64
2022/09/13 04:31:56;;;;;;;3.45;1.35;;;17.30;99.90;;;;;;5077428;28;20158;-64
2022/09/13 04:34:22;;;;;;;7.05;1.50;;;17.30;99.90;;;;;;5077358;28;20489;-64
2022/09/13 04:36:49;;;;;;;3.85;1.70;;;17.50;99.90;;;;;;5077336;28;20119;-64
2022/09/13 04:39:14;;;;;;;6.78;1.48;;;17.50;99.90;;;;;;5077498;28;20039;-65
2022/09/13 04:41:43;;;;;;;5.07;1.20;;;17.40;99.90;;;;;;5075592;28;20029;-64
2022/09/13 04:44:09;;;;;;;2.42;1.17;;;17.50;99.90;;;;;;5075239;28;20040;-65
2022/09/13 04:46:34;;;;;;;2.10;1.13;;;17.40;99.90;;;;;;5077004;28;20441;-65
2022/09/13 04:49:00;;;;;;;5.03;1.38;;;17.50;99.90;;;;;;5076819;28;20084;-64
2022/09/13 04:51:26;;;;;;;2.72;1.02;;;17.30;99.90;;;;;;5075578;28;20086;-65
2022/09/13 04:53:54;;;;;;;4.70;1.10;;;17.50;99.90;;;;;;5077002;28;20086;-64
2022/09/13 04:56:21;;;;;;;3.90;1.23;;;17.50;99.90;;;;;;5076955;28;20044;-64
2022/09/13 04:58:49;;;;;;;3.83;1.58;;;17.40;99.90;;;;;;5076907;28;20271;-64
2022/09/13 05:01:14;;;;;;;7.53;1.40;;;17.50;99.90;;;;;;5076797;28;20040;-64
2022/09/13 05:03:40;;;;;;;3.17;1.40;;;17.50;99.90;;;;;;5076743;28;20037;-64
2022/09/13 05:06:08;;;;;;;3.25;1.10;;;17.30;99.90;;;;;;5075323;28;20071;-64
2022/09/13 05:08:34;;;;;;;5.47;1.25;;;17.40;99.90;;;;;;5076699;28;20044;-65
2022/09/13 05:11:01;;;;;;;5.22;1.25;;;17.30;99.90;;;;;;5075447;28;20075;-65
2022/09/13 05:13:27;;;;;;;3.60;1.65;;;17.60;99.90;;;;;;5075790;28;20041;-64
2022/09/13 05:15:57;;;;;;;9.05;1.50;;;17.60;99.90;;;;;;5075519;28;20025;-64
2022/09/13 05:18:30;;;;;;;5.55;1.67;;;17.50;99.90;;;;;;5076497;28;20072;-63
2022/09/13 05:20:58;;;;;;;8.00;1.88;;;17.30;99.90;;;;;;5076989;28;20084;-64
2022/09/13 05:23:24;;;;;;;6.90;1.30;;;17.30;99.90;;;;;;5076389;28;20052;-65
2022/09/13 05:25:53;;;;;;;2.85;1.40;;;17.30;99.90;;;;;;5076341;28;20533;-65
2022/09/13 05:28:20;;;;;;;5.55;1.50;;;17.40;99.90;;;;;;5075970;28;20041;-66
2022/09/13 05:30:57;;;;;;;4.68;2.00;;;17.60;99.90;;;;;;5076338;28;20115;-64
2022/09/13 05:33:23;;;;;;;3.30;1.75;;;17.30;99.90;;;;;;5075417;28;20037;-64
2022/09/13 05:35:49;;;;;;;4.68;1.50;;;17.30;99.90;;;;;;5076226;28;20033;-65
2022/09/13 05:38:15;;;;;;;4.15;2.13;;;17.30;99.90;;;;;;5076359;28;20072;-63
2022/09/13 05:40:41;;;;;;;6.68;2.08;;;17.40;99.90;;;;;;5076044;28;20083;-65
2022/09/13 05:43:06;;;;;;;7.00;2.30;;;17.30;99.90;;;;;;5075914;28;20045;-64
2022/09/13 05:45:32;;;;;;;6.30;2.88;;;17.50;99.90;;;;;;5076083;28;20493;-64
2022/09/13 05:47:58;;;;;;;8.68;2.50;;;17.40;99.90;;;;;;5075637;28;20044;-65
2022/09/13 05:50:24;;;;;;;7.03;2.83;;;17.50;99.90;;;;;;5075897;28;20446;-64
2022/09/13 05:52:56;;;;;;;10.07;2.88;;;17.30;99.90;;;;;;5075516;28;20040;-65
2022/09/13 05:55:22;;;;;;;9.27;3.92;;;17.20;99.90;;;;;;5075751;28;20040;-65
2022/09/13 05:57:48;;;;;;;9.02;4.45;;;17.50;99.90;;;;;;5075790;28;20036;-64
2022/09/13 06:00:15;;;;;;;7.40;5.22;;;17.50;99.90;;;;;;5075509;28;20392;-65
2022/09/13 06:02:41;;;;;;;7.68;4.88;;;17.30;99.90;;;;;;5075605;28;20091;-65
2022/09/13 06:05:10;;;;;;;8.23;4.05;;;17.50;99.90;;;;;;5075564;28;20486;-65
2022/09/13 06:07:40;;;;;;;7.78;2.60;;;17.30;99.90;;;;;;5075496;28;20045;-64
2022/09/13 06:10:06;;;;;;;4.22;1.90;;;17.50;99.90;;;;;;5075299;28;20528;-65
2022/09/13 06:12:32;;;;;;;6.63;2.35;;;17.60;99.90;;;;;;5075490;28;20095;-65
2022/09/13 06:14:57;;;;;;;8.18;2.53;;;17.60;99.90;;;;;;5075273;28;20037;-65
2022/09/13 06:17:23;;;;;;;8.70;3.08;;;17.60;99.90;;;;;;5075395;28;20391;-64
2022/09/13 06:19:49;;;;;;;10.48;2.72;;;17.30;99.90;;;;;;5075370;28;20502;-65
2022/09/13 06:22:14;;;;;;;11.00;2.78;;;17.60;99.90;;;;;;5074321;28;20044;-64
2022/09/13 06:24:40;;;;;;;11.02;2.13;;;17.40;99.90;;;;;;5075229;28;20036;-65
2022/09/13 06:27:05;;;;;;;6.55;2.20;;;17.70;99.90;;;;;;5074965;28;20046;-65
2022/09/13 06:29:31;;;;;;;9.77;2.05;;;17.40;99.90;;;;;;5075122;28;20086;-65
2022/09/13 06:31:57;;;;;;;6.95;2.33;;;17.40;99.90;;;;;;5075156;28;20051;-65
2022/09/13 06:34:22;;;;;;;3.97;1.98;;;17.70;99.90;;;;;;5075150;28;20483;-65
2022/09/13 06:36:48;;;;;;;14.18;2.47;;;17.60;99.90;;;;;;5075037;28;20032;-65
2022/09/13 06:39:14;;;;;;;11.27;2.10;;;17.60;99.90;;;;;;5074919;28;20079;-65
2022/09/13 06:41:40;;;;;;;6.53;2.03;;;17.80;99.90;;;;;;5074930;28;20044;-65
2022/09/13 06:44:05;;;;;;;5.53;1.63;;;17.80;99.90;;;;;;5074955;28;20040;-64
2022/09/13 06:46:33;;;;;;;13.82;4.07;;;17.60;99.90;;;;;;5074806;28;20043;-64
2022/09/13 06:49:01;;;;;;;8.80;2.75;;;18.10;99.90;;;;;;5074649;28;20045;-64
2022/09/13 06:51:28;;;;;;;7.22;1.95;;;18.30;99.90;;;;;;5074804;28;20055;-63
2022/09/13 06:53:55;;;;;;;6.05;2.03;;;18.30;99.90;;;;;;5074615;28;20057;-64
2022/09/13 06:56:34;;;;;;;5.95;1.85;;;18.20;99.90;;;;;;5074912;28;20141;-64
2022/09/13 06:59:06;;;;;;;8.57;2.50;;;18.20;99.90;;;;;;5074658;28;20060;-64
2022/09/13 07:01:40;;;;;;;8.52;2.35;;;18.10;99.90;;;;;;5074582;28;20076;-64
2022/09/13 07:04:13;;;;;;;4.43;1.98;;;18.20;99.90;;;;;;5074527;28;20093;-64
2022/09/13 07:06:41;;;;;;;8.02;1.80;;;18.10;99.90;;;;;;5074429;28;20094;-64
2022/09/13 07:09:11;;;;;;;9.30;1.75;;;18.20;99.90;;;;;;5074343;28;20032;-64
2022/09/13 07:11:38;;;;;;;6.60;1.45;;;18.40;99.90;;;;;;5074402;28;20111;-63
2022/09/13 07:14:08;;;;;;;4.88;1.88;;;18.40;99.90;;;;;;5074369;28;20039;-64
2022/09/13 07:16:36;;;;;;;6.68;1.40;;;18.20;99.90;;;;;;5074224;28;20068;-64
2022/09/13 07:19:05;;;;;;;5.80;1.57;;;18.30;99.90;;;;;;5074273;28;20040;-64
2022/09/13 07:21:33;;;;;;;7.13;2.17;;;18.20;99.90;;;;;;5074178;28;20055;-64
2022/09/13 07:23:59;;;;;;;8.35;2.10;;;18.20;99.90;;;;;;5074196;28;20059;-64
2022/09/13 07:26:26;;;;;;;7.88;1.65;;;18.20;99.90;;;;;;5074023;28;20085;-64
2022/09/13 07:28:54;;;;;;;6.70;1.10;;;18.30;99.90;;;;;;5073781;28;20131;-64
2022/09/13 07:31:22;;;;;;;5.78;0.95;;;18.40;99.90;;;;;;5073853;28;20047;-64
2022/09/13 07:33:54;;;;;;;8.27;1.17;;;18.20;99.90;;;;;;5073811;28;20533;-64
2022/09/13 07:36:20;;;;;;;6.00;1.17;;;18.30;99.90;;;;;;5073967;28;20044;-65
2022/09/13 07:38:46;;;;;;;6.28;1.17;;;18.40;99.90;;;;;;5073937;28;20101;-63
2022/09/13 07:41:14;;;;;;;8.10;1.10;;;18.50;99.90;;;;;;5074027;28;20071;-64
2022/09/13 07:43:40;;;;;;;4.25;0.93;;;18.70;99.90;;;;;;5073791;28;20545;-65
2022/09/13 07:46:12;;;;;;;6.53;1.10;;;18.80;99.90;;;;;;5073937;28;20040;-64
2022/09/13 07:48:39;;;;;;;6.95;1.13;;;19.10;99.90;;;;;;5073208;28;20049;-64
2022/09/13 07:51:09;;;;;;;4.47;0.77;;;19.10;99.90;;;;;;5073569;28;20048;-64
2022/09/13 07:53:36;;;;;;;9.68;0.80;;;19.40;99.90;;;;;;5073806;28;20044;-64
2022/09/13 07:56:10;;;;;;;5.95;1.05;;;19.50;99.90;;;;;;5073383;28;20036;-65
2022/09/13 07:58:38;;;;;;;6.10;1.15;;;19.70;99.90;;;;;;5073783;28;20044;-63
2022/09/13 08:01:11;;;;;;;7.60;1.13;;;19.70;99.90;;;;;;5073384;28;20394;-64
2022/09/13 08:03:36;;;;;;;3.15;0.85;;;19.90;99.90;;;;;;5072238;28;20060;-65
2022/09/13 08:06:04;;;;;;;9.27;1.40;;;19.80;99.90;;;;;;5073719;28;20483;-65
2022/09/13 08:08:30;;;;;;;8.98;0.80;;;19.70;99.90;;;;;;5073273;28;20490;-64
2022/09/13 08:10:57;;;;;;;5.10;1.02;;;19.80;99.90;;;;;;5072315;28;20041;-64
2022/09/13 08:13:23;;;;;;;5.63;0.80;;;19.90;99.90;;;;;;5072932;28;20078;-64
2022/09/13 08:15:49;;;;;;;6.57;1.15;;;20.00;99.90;;;;;;5072941;28;20041;-65
2022/09/13 08:18:16;;;;;;;7.35;1.20;;;20.00;99.90;;;;;;5072914;28;20028;-64
2022/09/13 08:20:42;;;;;;;10.02;1.40;;;19.90;99.90;;;;;;5073370;28;20491;-64
2022/09/13 08:23:09;;;;;;;9.55;1.23;;;20.10;99.90;;;;;;5073470;28;20044;-64
2022/09/13 08:25:37;;;;;;;5.95;1.33;;;20.10;99.90;;;;;;5073479;28;20044;-64
2022/09/13 08:28:13;;;;;;;7.75;1.88;;;20.00;99.90;;;;;;5072337;28;20033;-64
2022/09/13 08:30:41;;;;;;;7.22;1.35;;;19.80;99.90;;;;;;5073405;28;20377;-64
2022/09/13 08:33:07;;;;;;;5.32;1.60;;;19.90;99.90;;;;;;5072400;28;20102;-64
2022/09/13 08:35:33;;;;;;;3.28;0.73;;;20.10;99.90;;;;;;5073411;28;20082;-64
2022/09/13 08:37:59;;;;;;;7.10;1.95;;;20.30;99.90;;;;;;5073366;28;20032;-63
2022/09/13 08:40:29;;;;;;;2.63;0.47;;;20.30;99.90;;;;;;5073375;28;20040;-64
2022/09/13 08:43:10;;;;;;;6.00;1.10;;;20.70;99.90;;;;;;5073427;28;20120;-64
2022/09/13 08:45:36;;;;;;;6.18;1.30;;;20.70;99.90;;;;;;5073382;28;20119;-64
2022/09/13 08:48:10;;;;;;;4.03;1.17;;;20.30;99.90;;;;;;5073083;28;20079;-65
2022/09/13 08:50:38;;;;;;;8.20;0.77;;;20.10;99.90;;;;;;5073240;28;20051;-65
2022/09/13 08:53:26;;;;;;;5.25;0.82;;;20.50;99.90;;;;;;5073294;28;20039;-64
2022/09/13 08:56:31;;;;;;;4.85;1.05;;;20.70;99.90;;;;;;5073293;28;20479;-64
2022/09/13 08:59:22;;;;;;;8.18;1.20;;;20.80;99.90;;;;;;5050908;28;20048;-64
2022/09/13 09:02:13;;;;;;;8.63;1.45;;;20.90;99.90;;;;;;5050920;28;20103;-65
2022/09/13 09:05:03;;;;;;;3.15;0.90;;;20.70;99.90;;;;;;5051028;28;20670;-65
2022/09/13 09:07:36;;;;;;;;;;;20.50;99.90;;;;;;5051398;28;20041;-65
2022/09/13 09:10:04;;;;;;;5.90;1.00;;;20.40;99.90;;;;;;5054494;28;19967;-64
2022/09/13 09:12:40;;;;;;;5.35;1.20;;;20.70;99.90;;;;;;5054373;28;20045;-63
2022/09/13 09:15:20;;;;;;;3.63;0.80;;;21.00;99.90;;;;;;5037910;28;20075;-63
2022/09/13 09:18:04;;;;;;;15.20;1.65;;;21.10;99.90;;;;;;5054499;28;20081;-64
2022/09/13 09:20:36;;;;;;;3.85;0.60;;;21.20;99.90;;;;;;5054306;28;20124;-64
2022/09/13 09:23:19;;;;;;;5.38;1.40;;;21.30;99.90;;;;;;5037611;28;20059;-64
2022/09/13 09:25:45;;;;;;;4.18;0.98;;;21.00;99.90;;;;;;5054263;28;20052;-66
2022/09/13 09:28:13;;;;;;;4.88;1.13;;;20.80;99.90;;;;;;5054223;28;20438;-64
2022/09/13 09:31:18;;;;;;;5.40;0.88;;;20.80;99.90;;;;;;5054167;28;20143;-65
2022/09/13 09:34:21;;;;;;;7.78;0.90;;;21.10;99.90;;;;;;4975424;28;20082;-65
2022/09/13 09:37:06;;;;;;;1.63;0.43;;;21.00;99.90;;;;;;5008365;28;20084;-65
2022/09/13 09:39:32;;;;;;;3.97;0.88;;;21.10;99.90;;;;;;5013572;28;20176;-65
2022/09/13 09:41:58;;;;;;;5.85;0.93;;;21.00;99.90;;;;;;4996931;28;20045;-64
2022/09/13 09:44:30;;;;;;;5.20;0.90;;;21.00;99.90;;;;;;4996676;28;20124;-65
2022/09/13 09:47:21;;;;;;;4.38;1.42;;;20.80;99.90;;;;;;5014164;28;20046;-65
2022/09/13 09:50:10;;;;;;;7.82;1.08;;;20.90;99.90;;;;;;4974803;28;20459;-64
2022/09/13 09:52:57;;;;;;;13.77;1.60;;;20.80;99.90;;;;;;4958789;28;20478;-65
2022/09/13 09:55:30;;;;;;;2.65;0.50;;;20.80;99.90;;;;;;4974873;28;20359;-64
2022/09/13 09:58:04;;;;;;;8.40;1.95;;;20.70;99.90;;;;;;4974894;28;20077;-65
2022/09/13 10:00:34;;;;;;;4.82;0.95;;;20.70;99.90;;;;;;4975070;28;20061;-66
2022/09/13 10:03:04;;;;;;;6.00;0.98;;;20.80;99.90;;;;;;4974819;28;20488;-66
2022/09/13 10:05:31;;;;;;;4.05;1.13;;;20.70;99.90;;;;;;4958958;28;20109;-66
2022/09/13 10:08:02;;;;;;;7.72;1.17;;;20.70;99.90;;;;;;4974768;28;20051;-67
2022/09/13 10:10:36;;;;;;;4.97;1.02;;;20.70;99.90;;;;;;5052183;28;20041;-65
2022/09/13 10:13:04;;;;;;;6.47;0.88;;;21.40;99.90;;;;;;5052213;28;20041;-65
2022/09/13 10:15:34;;;;;;;8.02;1.30;;;21.50;99.90;;;;;;5036487;28;20037;-65
2022/09/13 10:18:04;;;;;;;7.75;1.13;;;21.40;99.90;;;;;;5053132;28;20041;-64
2022/09/13 10:20:30;;;;;;;8.18;2.28;;;22.10;99.90;;;;;;5052040;28;20399;-64
2022/09/13 10:23:26;;;;;;;6.03;1.70;;;22.00;99.90;;;;;;5053232;28;20045;-64
2022/09/13 10:26:12;;;;;;;3.13;1.00;;;22.30;99.90;;;;;;4991400;28;20061;-65
2022/09/13 10:29:00;;;;;;;3.72;1.08;;;22.20;99.90;;;;;;4974506;28;20141;-64
2022/09/13 10:31:33;;;;;;;10.45;1.85;;;22.20;99.90;;;;;;4974334;28;20089;-64
2022/09/13 10:34:27;;;;;;;5.05;1.80;;;21.80;99.90;;;;;;4974215;28;20509;-64
2022/09/13 10:36:56;;;;;;;4.28;1.38;;;21.50;99.90;;;;;;4971510;28;20058;-65
2022/09/13 10:39:23;;;;;;;11.02;1.40;;;21.30;99.90;;;;;;4957169;28;20497;-65
2022/09/13 10:41:54;;;;;;;7.85;1.83;;;21.00;99.90;;;;;;4940289;28;20516;-64
2022/09/13 10:44:44;;;;;;;3.17;1.02;;;21.00;99.90;;;;;;4972819;28;20517;-65
2022/09/13 10:47:26;;;;;;;4.10;1.00;;;21.20;99.90;;;;;;4960050;28;20066;-64
2022/09/13 10:49:53;;;;;;;5.38;0.85;;;21.40;99.90;;;;;;4973955;28;20047;-66
2022/09/13 10:52:34;;;;;;;5.43;0.93;;;21.80;99.90;;;;;;4972492;28;20043;-64
2022/09/13 10:55:18;;;;;;;7.07;1.52;;;21.70;99.90;;;;;;4972327;28;20043;-64
2022/09/13 10:57:54;;;;;;;4.85;1.20;;;21.70;99.90;;;;;;4973235;28;20478;-65
2022/09/13 11:00:41;;;;;;;4.47;0.82;;;22.40;99.90;;;;;;4971957;28;20600;-64
2022/09/13 11:03:18;;;;;;;6.10;0.98;;;22.80;99.90;;;;;;5055433;28;20044;-65
2022/09/13 11:06:04;;;;;;;3.80;1.35;;;22.60;99.90;;;;;;5074555;28;20083;-65
2022/09/13 11:08:47;;;;;;;5.10;1.23;;;22.50;99.90;;;;;;5074160;28;20036;-66
2022/09/13 11:11:24;;;;;;;6.93;0.85;;;22.40;99.90;;;;;;5072732;28;20036;-66
2022/09/13 11:13:55;;;;;;;7.70;1.25;;;22.60;99.90;;;;;;5073103;28;20093;-66
2022/09/13 11:16:36;;;;;;;6.18;1.10;;;22.30;99.90;;;;;;5073173;28;20066;-66
2022/09/13 11:19:33;;;;;;;9.13;1.40;;;22.80;99.90;;;;;;5074185;28;20044;-67
2022/09/13 11:22:21;;;;;;;4.15;1.05;;;22.40;99.90;;;;;;5074295;28;20041;-66
2022/09/13 11:25:02;;;;;;;3.85;0.73;;;22.20;99.90;;;;;;5074188;28;20040;-65
2022/09/13 11:27:56;;;;;;;5.85;1.00;;;22.40;99.90;;;;;;5074203;28;20044;-65
2022/09/13 11:30:24;;;;;;;5.93;0.80;;;23.20;99.90;;;;;;5073167;28;20372;-65
2022/09/13 11:33:18;;;;;;;7.22;0.70;;;24.20;99.90;;;;;;5074132;28;20052;-64
2022/09/13 11:35:49;;;;;;;6.82;1.35;;;25.10;99.90;;;;;;5031937;28;20045;-64
2022/09/13 11:38:17;;;;;;;7.45;1.42;;;24.70;99.90;;;;;;5031834;28;20064;-64
2022/09/13 11:40:55;;;;;;;12.35;1.45;;;24.30;99.90;;;;;;5013534;28;20459;-65
2022/09/13 11:43:38;;;;;;;6.38;1.13;;;23.70;99.90;;;;;;5030326;28;20041;-65
2022/09/13 11:46:31;;;;;;;3.83;0.90;;;24.90;99.90;;;;;;5030977;28;20053;-65
2022/09/13 11:49:16;;;;;;;10.38;1.60;;;26.70;99.90;;;;;;5031365;28;20136;-66
2022/09/13 11:51:53;;;;;;;6.05;1.35;;;25.20;99.90;;;;;;5031601;28;20547;-64
2022/09/13 11:54:48;;;;;;;6.72;0.82;;;24.60;99.90;;;;;;5032221;28;20053;-66
2022/09/13 11:57:20;;;;;;;6.97;1.17;;;25.30;99.90;;;;;;5031734;28;20519;-66
2022/09/13 11:59:52;;;;;;;6.72;1.60;;;25.40;99.90;;;;;;5031742;28;20480;-65
2022/09/13 12:02:25;;;;;;;3.42;0.98;;;26.50;99.90;;;;;;5031555;28;20140;-65
2022/09/13 12:05:20;;;;;;;5.10;1.13;;;26.50;99.80;;;;;;5031555;28;20458;-65
2022/09/13 12:07:48;;;;;;;3.10;0.73;;;25.50;99.30;;;;;;5031613;28;20514;-65
2022/09/13 12:10:21;;;;;;;;;;;24.90;99.90;;;;;;5031161;28;20076;-65
2022/09/13 12:12:49;;;;;;;12.35;1.38;;;25.00;99.90;;;;;;5054148;28;20005;-64
2022/09/13 12:15:17;;;;;;;5.65;1.00;;;24.70;99.90;;;;;;5073662;28;20036;-65
2022/09/13 12:17:50;;;;;;;11.13;1.13;;;24.70;99.90;;;;;;5072751;28;20036;-64
2022/09/13 12:20:50;;;;;;;5.28;1.10;;;24.80;99.90;;;;;;5073663;28;20199;-65
2022/09/13 12:23:23;;;;;;;7.40;1.20;;;24.80;99.90;;;;;;5031312;28;20646;-65
2022/09/13 12:26:25;;;;;;;6.85;1.35;;;25.40;99.90;;;;;;5031355;28;20049;-64
2022/09/13 12:28:56;;;;;;;4.63;1.27;;;25.50;99.50;;;;;;4953334;29;20055;-65
2022/09/13 12:31:25;;;;;;;6.22;1.40;;;25.70;99.90;;;;;;4953430;29;20039;-65
2022/09/13 12:33:51;;;;;;;8.07;1.10;;;25.30;99.90;;;;;;4953280;29;20047;-65
2022/09/13 12:36:35;;;;;;;3.22;1.02;;;24.60;99.90;;;;;;4953257;29;20051;-65
2022/09/13 12:39:30;;;;;;;6.80;1.15;;;24.30;99.90;;;;;;4952833;29;20086;-65
2022/09/13 12:42:32;;;;;;;4.97;1.35;;;24.10;99.90;;;;;;4953350;28;20538;-65
2022/09/13 12:45:39;;;;;;;7.05;1.70;;;24.50;99.90;;;;;;4956604;29;20051;-65
2022/09/13 12:48:30;;;;;;;3.88;1.05;;;24.60;99.90;;;;;;4956391;29;20066;-65
2022/09/13 12:51:19;;;;;;;6.93;1.27;;;24.30;99.90;;;;;;4956891;29;20051;-66
2022/09/13 12:54:01;;;;;;;7.57;1.50;;;23.90;99.90;;;;;;4956753;29;20445;-66
2022/09/13 12:56:34;;;;;;;9.75;1.08;;;23.50;99.90;;;;;;4956842;29;20290;-65
2022/09/13 12:59:21;;;;;;;5.60;1.58;;;23.50;99.90;;;;;;4989940;28;20524;-66
2022/09/13 13:01:49;;;;;;;5.15;1.63;;;23.30;99.90;;;;;;5015081;28;20133;-66
2022/09/13 13:04:17;;;;;;;9.80;1.92;;;23.20;99.90;;;;;;5023624;28;20094;-65
2022/09/13 13:06:57;;;;;;;7.65;1.15;;;23.20;99.90;;;;;;5076776;28;20437;-66
2022/09/13 13:09:35;;;;;;;8.98;1.30;;;23.20;99.90;;;;;;5074540;28;20094;-66
2022/09/13 13:12:01;;;;;;;6.97;1.63;;;23.00;99.90;;;;;;5075974;28;20046;-65
2022/09/13 13:14:45;;;;;;;3.78;1.15;;;22.90;99.90;;;;;;5074664;28;20483;-65
2022/09/13 13:17:33;;;;;;;6.68;1.27;;;23.00;99.90;;;;;;5076586;28;20032;-65